sensor_id;sensor_type;location;lat;lon;timestamp;temperature;humidity
27633;DHT22;15046;50.930;13.334;2023-07-02T00:00:08;17.40;99.90
27633;DHT22;15046;50.930;13.334;2023-07-02T00:02:35;17.40;99.90
27633;DHT22;15046;50.930;13.334;2023-07-02T00:05:01;17.40;99.90
27633;DHT22;15046;50.930;13.334;2023-07-02T00:07:27;17.30;99.90
27633;DHT22;15046;50.930;13.334;2023-07-02T00:09:53;17.30;99.90
27633;DHT22;15046;50.930;13.334;2023-07-02T00:12:20;17.20;99.90
27633;DHT22;15046;50.930;13.334;2023-07-02T00:14:46;17.30;99.90
27633;DHT22;15046;50.930;13.334;2023-07-02T00:17:12;17.40;99.90
27633;DHT22;15046;50.930;13.334;2023-07-02T00:19:39;17.40;99.90
27633;DHT22;15046;50.930;13.334;2023-07-02T00:22:07;17.40;99.90
27633;DHT22;15046;50.930;13.334;2023-07-02T00:24:33;17.30;99.90
27633;DHT22;15046;50.930;13.334;2023-07-02T00:26:59;17.30;99.90
27633;DHT22;15046;50.930;13.334;2023-07-02T00:29:26;17.30;99.90
27633;DHT22;15046;50.930;13.334;2023-07-02T00:31:52;17.30;99.90
27633;DHT22;15046;50.930;13.334;2023-07-02T00:34:18;17.30;99.90
27633;DHT22;15046;50.930;13.334;2023-07-02T00:36:44;17.30;99.90
27633;DHT22;15046;50.930;13.334;2023-07-02T00:39:10;17.20;99.90
27633;DHT22;15046;50.930;13.334;2023-07-02T00:41:39;17.20;99.90
27633;DHT22;15046;50.930;13.334;2023-07-02T00:44:05;17.20;99.90
27633;DHT22;15046;50.930;13.334;2023-07-02T00:46:31;17.30;99.90
27633;DHT22;15046;50.930;13.334;2023-07-02T00:48:58;17.30;99.90
27633;DHT22;15046;50.930;13.334;2023-07-02T00:51:27;17.30;99.90
27633;DHT22;15046;50.930;13.334;2023-07-02T00:53:54;17.30;99.90
27633;DHT22;15046;50.930;13.334;2023-07-02T00:56:21;17.30;99.90
27633;DHT22;15046;50.930;13.334;2023-07-02T00:58:49;17.30;99.90
27633;DHT22;15046;50.930;13.334;2023-07-02T01:01:19;17.40;99.90
27633;DHT22;15046;50.930;13.334;2023-07-02T01:04:00;17.30;99.90
27633;DHT22;15046;50.930;13.334;2023-07-02T01:06:29;17.30;99.90
27633;DHT22;15046;50.930;13.334;2023-07-02T01:08:57;17.30;99.90
27633;DHT22;15046;50.930;13.334;2023-07-02T01:11:36;17.30;99.90
27633;DHT22;15046;50.930;13.334;2023-07-02T01:17:12;17.30;99.90
27633;DHT22;15046;50.930;13.334;2023-07-02T01:19:43;17.20;99.90
27633;DHT22;15046;50.930;13.334;2023-07-02T01:22:10;17.20;99.90
27633;DHT22;15046;50.930;13.334;2023-07-02T01:24:38;17.20;99.90
27633;DHT22;15046;50.930;13.334;2023-07-02T01:27:04;17.20;99.90
27633;DHT22;15046;50.930;13.334;2023-07-02T01:29:30;17.00;99.90
27633;DHT22;15046;50.930;13.334;2023-07-02T01:31:57;16.80;99.90
27633;DHT22;15046;50.930;13.334;2023-07-02T01:34:23;16.70;99.90
27633;DHT22;15046;50.930;13.334;2023-07-02T01:36:49;16.60;99.90
27633;DHT22;15046;50.930;13.334;2023-07-02T01:39:14;16.60;99.90
27633;DHT22;15046;50.930;13.334;2023-07-02T01:41:50;16.50;99.90
27633;DHT22;15046;50.930;13.334;2023-07-02T01:44:16;16.40;99.90
27633;DHT22;15046;50.930;13.334;2023-07-02T01:46:43;16.40;99.90
27633;DHT22;15046;50.930;13.334;2023-07-02T01:49:08;16.40;99.90
27633;DHT22;15046;50.930;13.334;2023-07-02T01:51:34;16.40;99.90
27633;DHT22;15046;50.930;13.334;2023-07-02T01:54:01;16.40;99.90
27633;DHT22;15046;50.930;13.334;2023-07-02T01:56:27;16.40;99.90
27633;DHT22;15046;50.930;13.334;2023-07-02T01:58:54;16.30;99.90
27633;DHT22;15046;50.930;13.334;2023-07-02T02:01:20;16.30;99.90
27633;DHT22;15046;50.930;13.334;2023-07-02T02:03:46;16.30;99.90
27633;DHT22;15046;50.930;13.334;2023-07-02T02:06:12;16.20;99.90
27633;DHT22;15046;50.930;13.334;2023-07-02T02:08:38;16.30;99.90
27633;DHT22;15046;50.930;13.334;2023-07-02T02:11:04;16.30;99.90
27633;DHT22;15046;50.930;13.334;2023-07-02T02:13:30;16.20;99.90
27633;DHT22;15046;50.930;13.334;2023-07-02T02:16:08;16.30;99.90
27633;DHT22;15046;50.930;13.334;2023-07-02T02:18:34;16.30;99.90
27633;DHT22;15046;50.930;13.334;2023-07-02T02:21:00;16.20;99.90
27633;DHT22;15046;50.930;13.334;2023-07-02T02:23:26;16.20;99.90
27633;DHT22;15046;50.930;13.334;2023-07-02T02:25:52;16.30;99.90
27633;DHT22;15046;50.930;13.334;2023-07-02T02:28:18;16.30;99.90
27633;DHT22;15046;50.930;13.334;2023-07-02T02:30:44;16.40;99.90
27633;DHT22;15046;50.930;13.334;2023-07-02T02:33:09;16.30;99.90
27633;DHT22;15046;50.930;13.334;2023-07-02T02:35:35;16.30;99.90
27633;DHT22;15046;50.930;13.334;2023-07-02T02:38:03;16.30;99.90
27633;DHT22;15046;50.930;13.334;2023-07-02T02:40:29;16.30;99.90
27633;DHT22;15046;50.930;13.334;2023-07-02T02:42:55;16.40;99.90
27633;DHT22;15046;50.930;13.334;2023-07-02T02:45:21;16.40;99.90
27633;DHT22;15046;50.930;13.334;2023-07-02T02:47:47;16.50;99.90
27633;DHT22;15046;50.930;13.334;2023-07-02T02:50:13;16.60;99.90
27633;DHT22;15046;50.930;13.334;2023-07-02T02:52:40;16.60;99.90
27633;DHT22;15046;50.930;13.334;2023-07-02T02:55:07;16.60;99.90
27633;DHT22;15046;50.930;13.334;2023-07-02T02:57:33;16.60;99.90
27633;DHT22;15046;50.930;13.334;2023-07-02T02:59:59;16.60;99.90
27633;DHT22;15046;50.930;13.334;2023-07-02T03:02:25;16.70;99.90
27633;DHT22;15046;50.930;13.334;2023-07-02T03:04:51;16.60;99.90
27633;DHT22;15046;50.930;13.334;2023-07-02T03:07:17;16.70;99.90
27633;DHT22;15046;50.930;13.334;2023-07-02T03:09:43;16.60;99.90
27633;DHT22;15046;50.930;13.334;2023-07-02T03:12:09;16.70;99.90
27633;DHT22;15046;50.930;13.334;2023-07-02T03:14:35;16.70;99.90
27633;DHT22;15046;50.930;13.334;2023-07-02T03:17:01;16.70;99.90
27633;DHT22;15046;50.930;13.334;2023-07-02T03:19:27;16.70;99.90
27633;DHT22;15046;50.930;13.334;2023-07-02T03:21:52;16.80;99.90
27633;DHT22;15046;50.930;13.334;2023-07-02T03:24:18;16.80;99.90
27633;DHT22;15046;50.930;13.334;2023-07-02T03:26:44;16.80;99.90
27633;DHT22;15046;50.930;13.334;2023-07-02T03:29:10;16.80;99.90
27633;DHT22;15046;50.930;13.334;2023-07-02T03:31:36;16.80;99.90
27633;DHT22;15046;50.930;13.334;2023-07-02T03:34:09;16.80;99.90
27633;DHT22;15046;50.930;13.334;2023-07-02T03:36:37;16.80;99.90
27633;DHT22;15046;50.930;13.334;2023-07-02T03:39:04;16.90;99.90
27633;DHT22;15046;50.930;13.334;2023-07-02T03:41:30;16.80;99.90
27633;DHT22;15046;50.930;13.334;2023-07-02T03:43:56;16.80;99.90
27633;DHT22;15046;50.930;13.334;2023-07-02T03:46:22;16.80;99.90
27633;DHT22;15046;50.930;13.334;2023-07-02T03:48:47;16.80;99.90
27633;DHT22;15046;50.930;13.334;2023-07-02T03:51:15;16.80;99.90
27633;DHT22;15046;50.930;13.334;2023-07-02T03:53:43;16.80;99.90
27633;DHT22;15046;50.930;13.334;2023-07-02T03:56:09;16.60;99.90
27633;DHT22;15046;50.930;13.334;2023-07-02T03:58:35;16.40;99.90
27633;DHT22;15046;50.930;13.334;2023-07-02T04:01:01;16.30;99.90
27633;DHT22;15046;50.930;13.334;2023-07-02T04:03:30;16.30;99.90
27633;DHT22;15046;50.930;13.334;2023-07-02T04:05:56;16.20;99.90
27633;DHT22;15046;50.930;13.334;2023-07-02T04:08:22;16.10;99.90
27633;DHT22;15046;50.930;13.334;2023-07-02T04:10:50;16.10;99.90
27633;DHT22;15046;50.930;13.334;2023-07-02T04:13:16;16.10;99.90
27633;DHT22;15046;50.930;13.334;2023-07-02T04:15:42;16.10;99.90
27633;DHT22;15046;50.930;13.334;2023-07-02T04:18:07;16.10;99.90
27633;DHT22;15046;50.930;13.334;2023-07-02T04:20:34;16.00;99.90
27633;DHT22;15046;50.930;13.334;2023-07-02T04:22:59;16.00;99.90
27633;DHT22;15046;50.930;13.334;2023-07-02T04:25:25;15.90;99.90
27633;DHT22;15046;50.930;13.334;2023-07-02T04:27:51;15.90;99.90
27633;DHT22;15046;50.930;13.334;2023-07-02T04:30:22;15.80;99.90
27633;DHT22;15046;50.930;13.334;2023-07-02T04:32:48;15.80;99.90
27633;DHT22;15046;50.930;13.334;2023-07-02T04:35:13;15.80;99.90
27633;DHT22;15046;50.930;13.334;2023-07-02T04:37:40;15.80;99.90
27633;DHT22;15046;50.930;13.334;2023-07-02T04:40:06;15.80;99.90
27633;DHT22;15046;50.930;13.334;2023-07-02T04:42:39;15.80;99.90
27633;DHT22;15046;50.930;13.334;2023-07-02T04:45:07;15.90;99.90
27633;DHT22;15046;50.930;13.334;2023-07-02T04:47:34;16.00;99.90
27633;DHT22;15046;50.930;13.334;2023-07-02T04:50:00;16.10;99.90
27633;DHT22;15046;50.930;13.334;2023-07-02T04:52:27;16.10;99.90
27633;DHT22;15046;50.930;13.334;2023-07-02T04:54:53;16.20;99.90
27633;DHT22;15046;50.930;13.334;2023-07-02T04:57:18;16.30;99.90
27633;DHT22;15046;50.930;13.334;2023-07-02T04:59:44;16.30;99.90
27633;DHT22;15046;50.930;13.334;2023-07-02T05:02:10;16.30;99.90
27633;DHT22;15046;50.930;13.334;2023-07-02T05:04:36;16.30;99.90
27633;DHT22;15046;50.930;13.334;2023-07-02T05:07:05;16.30;99.90
27633;DHT22;15046;50.930;13.334;2023-07-02T05:09:31;16.30;99.90
27633;DHT22;15046;50.930;13.334;2023-07-02T05:11:58;16.30;99.90
27633;DHT22;15046;50.930;13.334;2023-07-02T05:14:24;16.30;99.90
27633;DHT22;15046;50.930;13.334;2023-07-02T05:16:50;16.30;99.90
27633;DHT22;15046;50.930;13.334;2023-07-02T05:19:17;16.40;99.90
27633;DHT22;15046;50.930;13.334;2023-07-02T05:21:43;16.40;99.90
27633;DHT22;15046;50.930;13.334;2023-07-02T05:24:09;16.40;99.90
27633;DHT22;15046;50.930;13.334;2023-07-02T05:26:35;16.40;99.90
27633;DHT22;15046;50.930;13.334;2023-07-02T05:29:01;16.50;99.90
27633;DHT22;15046;50.930;13.334;2023-07-02T05:31:27;16.60;99.90
27633;DHT22;15046;50.930;13.334;2023-07-02T05:33:53;16.60;99.90
27633;DHT22;15046;50.930;13.334;2023-07-02T05:36:20;16.70;99.90
27633;DHT22;15046;50.930;13.334;2023-07-02T05:38:46;16.70;99.90
27633;DHT22;15046;50.930;13.334;2023-07-02T05:41:18;16.80;99.90
27633;DHT22;15046;50.930;13.334;2023-07-02T05:43:44;16.90;99.90
27633;DHT22;15046;50.930;13.334;2023-07-02T05:46:10;16.90;99.90
27633;DHT22;15046;50.930;13.334;2023-07-02T05:48:36;16.90;99.90
27633;DHT22;15046;50.930;13.334;2023-07-02T05:51:02;16.80;99.90
27633;DHT22;15046;50.930;13.334;2023-07-02T05:53:28;16.70;99.90
27633;DHT22;15046;50.930;13.334;2023-07-02T05:55:54;16.70;99.90
27633;DHT22;15046;50.930;13.334;2023-07-02T05:58:20;16.60;99.90
27633;DHT22;15046;50.930;13.334;2023-07-02T06:00:46;16.70;99.90
27633;DHT22;15046;50.930;13.334;2023-07-02T06:03:20;16.70;99.90
27633;DHT22;15046;50.930;13.334;2023-07-02T06:05:47;16.80;99.90
27633;DHT22;15046;50.930;13.334;2023-07-02T06:08:17;16.80;99.90
27633;DHT22;15046;50.930;13.334;2023-07-02T06:10:46;16.80;99.90
27633;DHT22;15046;50.930;13.334;2023-07-02T06:13:13;16.80;99.90
27633;DHT22;15046;50.930;13.334;2023-07-02T06:15:39;16.80;99.90
27633;DHT22;15046;50.930;13.334;2023-07-02T06:18:05;16.80;99.90
27633;DHT22;15046;50.930;13.334;2023-07-02T06:20:31;16.90;99.90
27633;DHT22;15046;50.930;13.334;2023-07-02T06:22:57;16.90;99.90
27633;DHT22;15046;50.930;13.334;2023-07-02T06:25:23;17.00;99.90
27633;DHT22;15046;50.930;13.334;2023-07-02T06:27:48;17.00;99.90
27633;DHT22;15046;50.930;13.334;2023-07-02T06:30:16;17.10;99.90
27633;DHT22;15046;50.930;13.334;2023-07-02T06:32:41;17.20;99.90
27633;DHT22;15046;50.930;13.334;2023-07-02T06:35:09;17.40;99.90
27633;DHT22;15046;50.930;13.334;2023-07-02T06:37:36;17.50;99.90
27633;DHT22;15046;50.930;13.334;2023-07-02T06:40:02;17.60;99.90
27633;DHT22;15046;50.930;13.334;2023-07-02T06:42:30;17.60;99.90
27633;DHT22;15046;50.930;13.334;2023-07-02T06:44:56;17.70;99.90
27633;DHT22;15046;50.930;13.334;2023-07-02T06:47:22;17.70;99.90
27633;DHT22;15046;50.930;13.334;2023-07-02T06:49:48;17.80;99.90
27633;DHT22;15046;50.930;13.334;2023-07-02T06:52:15;17.90;99.90
27633;DHT22;15046;50.930;13.334;2023-07-02T06:54:41;18.10;99.90
27633;DHT22;15046;50.930;13.334;2023-07-02T06:57:07;18.10;99.90
27633;DHT22;15046;50.930;13.334;2023-07-02T06:59:33;18.10;99.90
27633;DHT22;15046;50.930;13.334;2023-07-02T07:01:59;18.30;99.90
27633;DHT22;15046;50.930;13.334;2023-07-02T07:04:25;18.30;99.90
27633;DHT22;15046;50.930;13.334;2023-07-02T07:06:50;18.40;99.90
27633;DHT22;15046;50.930;13.334;2023-07-02T07:09:16;18.30;99.90
27633;DHT22;15046;50.930;13.334;2023-07-02T07:11:43;18.30;99.90
27633;DHT22;15046;50.930;13.334;2023-07-02T07:14:09;18.30;99.90
27633;DHT22;15046;50.930;13.334;2023-07-02T07:16:35;18.40;99.90
27633;DHT22;15046;50.930;13.334;2023-07-02T07:19:01;18.40;99.90
27633;DHT22;15046;50.930;13.334;2023-07-02T07:21:27;18.50;99.90
27633;DHT22;15046;50.930;13.334;2023-07-02T07:23:55;18.60;99.90
27633;DHT22;15046;50.930;13.334;2023-07-02T07:26:21;18.80;99.90
27633;DHT22;15046;50.930;13.334;2023-07-02T07:28:46;18.80;99.90
27633;DHT22;15046;50.930;13.334;2023-07-02T07:31:12;18.90;99.90
27633;DHT22;15046;50.930;13.334;2023-07-02T07:33:38;18.90;99.90
27633;DHT22;15046;50.930;13.334;2023-07-02T07:36:04;19.00;99.90
27633;DHT22;15046;50.930;13.334;2023-07-02T07:38:30;19.00;99.90
27633;DHT22;15046;50.930;13.334;2023-07-02T07:40:56;18.90;99.90
27633;DHT22;15046;50.930;13.334;2023-07-02T07:43:22;18.90;99.90
27633;DHT22;15046;50.930;13.334;2023-07-02T07:45:49;19.00;99.90
27633;DHT22;15046;50.930;13.334;2023-07-02T07:48:15;19.20;99.90
27633;DHT22;15046;50.930;13.334;2023-07-02T07:50:41;19.40;99.90
27633;DHT22;15046;50.930;13.334;2023-07-02T07:53:07;19.60;99.90
27633;DHT22;15046;50.930;13.334;2023-07-02T07:55:33;19.70;99.90
27633;DHT22;15046;50.930;13.334;2023-07-02T07:57:59;19.90;99.90
27633;DHT22;15046;50.930;13.334;2023-07-02T08:00:25;20.00;99.90
27633;DHT22;15046;50.930;13.334;2023-07-02T08:02:52;20.30;99.90
27633;DHT22;15046;50.930;13.334;2023-07-02T08:05:21;20.40;99.90
27633;DHT22;15046;50.930;13.334;2023-07-02T08:07:47;20.60;99.90
27633;DHT22;15046;50.930;13.334;2023-07-02T08:10:13;20.60;99.90
27633;DHT22;15046;50.930;13.334;2023-07-02T08:12:39;20.50;99.90
27633;DHT22;15046;50.930;13.334;2023-07-02T08:15:06;20.50;99.90
27633;DHT22;15046;50.930;13.334;2023-07-02T08:17:33;20.40;99.90
27633;DHT22;15046;50.930;13.334;2023-07-02T08:20:00;20.30;99.90
27633;DHT22;15046;50.930;13.334;2023-07-02T08:22:25;20.10;99.90
27633;DHT22;15046;50.930;13.334;2023-07-02T08:24:51;20.00;99.90
27633;DHT22;15046;50.930;13.334;2023-07-02T08:27:18;20.00;99.90
27633;DHT22;15046;50.930;13.334;2023-07-02T08:29:47;20.00;99.90
27633;DHT22;15046;50.930;13.334;2023-07-02T08:32:13;20.10;99.90
27633;DHT22;15046;50.930;13.334;2023-07-02T08:34:39;20.10;99.90
27633;DHT22;15046;50.930;13.334;2023-07-02T08:37:05;20.20;99.90
27633;DHT22;15046;50.930;13.334;2023-07-02T08:39:31;20.30;99.90
27633;DHT22;15046;50.930;13.334;2023-07-02T08:41:56;20.30;99.90
27633;DHT22;15046;50.930;13.334;2023-07-02T08:44:23;20.40;99.90
27633;DHT22;15046;50.930;13.334;2023-07-02T08:46:50;20.50;99.90
27633;DHT22;15046;50.930;13.334;2023-07-02T08:49:22;20.50;99.80
27633;DHT22;15046;50.930;13.334;2023-07-02T08:51:48;20.50;98.90
27633;DHT22;15046;50.930;13.334;2023-07-02T08:54:14;20.50;98.10
27633;DHT22;15046;50.930;13.334;2023-07-02T08:56:42;20.50;97.40
27633;DHT22;15046;50.930;13.334;2023-07-02T08:59:09;20.50;96.80
27633;DHT22;15046;50.930;13.334;2023-07-02T09:01:52;20.60;97.30
27633;DHT22;15046;50.930;13.334;2023-07-02T09:04:25;20.70;96.50
27633;DHT22;15046;50.930;13.334;2023-07-02T09:07:09;20.70;96.60
27633;DHT22;15046;50.930;13.334;2023-07-02T09:09:49;20.90;96.10
27633;DHT22;15046;50.930;13.334;2023-07-02T09:12:29;21.10;96.40
27633;DHT22;15046;50.930;13.334;2023-07-02T09:15:00;21.30;95.20
27633;DHT22;15046;50.930;13.334;2023-07-02T09:17:28;21.50;94.10
27633;DHT22;15046;50.930;13.334;2023-07-02T09:19:55;21.60;92.30
27633;DHT22;15046;50.930;13.334;2023-07-02T09:22:21;21.70;91.80
27633;DHT22;15046;50.930;13.334;2023-07-02T09:24:53;21.80;91.10
27633;DHT22;15046;50.930;13.334;2023-07-02T09:27:20;21.90;90.20
27633;DHT22;15046;50.930;13.334;2023-07-02T09:29:50;22.10;89.00
27633;DHT22;15046;50.930;13.334;2023-07-02T09:32:36;22.20;86.90
27633;DHT22;15046;50.930;13.334;2023-07-02T09:35:03;22.40;85.20
27633;DHT22;15046;50.930;13.334;2023-07-02T09:37:31;22.40;84.60
27633;DHT22;15046;50.930;13.334;2023-07-02T09:39:58;22.60;83.40
27633;DHT22;15046;50.930;13.334;2023-07-02T09:42:29;22.70;81.90
27633;DHT22;15046;50.930;13.334;2023-07-02T09:44:55;22.90;80.30
27633;DHT22;15046;50.930;13.334;2023-07-02T09:47:24;23.10;79.90
27633;DHT22;15046;50.930;13.334;2023-07-02T09:50:04;23.20;79.70
27633;DHT22;15046;50.930;13.334;2023-07-02T09:52:34;23.40;78.30
27633;DHT22;15046;50.930;13.334;2023-07-02T09:55:01;23.70;78.80
27633;DHT22;15046;50.930;13.334;2023-07-02T09:57:27;24.10;77.60
27633;DHT22;15046;50.930;13.334;2023-07-02T09:59:58;24.20;76.10
27633;DHT22;15046;50.930;13.334;2023-07-02T10:02:24;24.20;75.70
27633;DHT22;15046;50.930;13.334;2023-07-02T10:04:49;24.20;75.20
27633;DHT22;15046;50.930;13.334;2023-07-02T10:07:28;24.40;75.80
27633;DHT22;15046;50.930;13.334;2023-07-02T10:09:54;24.90;76.30
27633;DHT22;15046;50.930;13.334;2023-07-02T10:12:29;25.10;74.30
27633;DHT22;15046;50.930;13.334;2023-07-02T10:14:57;25.20;73.80
27633;DHT22;15046;50.930;13.334;2023-07-02T10:17:30;25.20;72.80
27633;DHT22;15046;50.930;13.334;2023-07-02T10:20:06;25.10;72.80
27633;DHT22;15046;50.930;13.334;2023-07-02T10:22:50;25.80;71.50
27633;DHT22;15046;50.930;13.334;2023-07-02T10:25:26;27.10;70.60
27633;DHT22;15046;50.930;13.334;2023-07-02T10:27:52;27.90;66.70
27633;DHT22;15046;50.930;13.334;2023-07-02T10:30:18;27.30;67.50
27633;DHT22;15046;50.930;13.334;2023-07-02T10:32:44;27.70;68.50
27633;DHT22;15046;50.930;13.334;2023-07-02T10:35:14;28.50;66.50
27633;DHT22;15046;50.930;13.334;2023-07-02T10:37:41;29.10;63.60
27633;DHT22;15046;50.930;13.334;2023-07-02T10:40:08;29.10;60.60
27633;DHT22;15046;50.930;13.334;2023-07-02T10:42:48;28.30;60.20
27633;DHT22;15046;50.930;13.334;2023-07-02T10:45:17;28.20;61.30
27633;DHT22;15046;50.930;13.334;2023-07-02T10:47:43;29.00;60.60
27633;DHT22;15046;50.930;13.334;2023-07-02T10:50:20;30.10;59.20
27633;DHT22;15046;50.930;13.334;2023-07-02T10:52:47;30.00;58.80
27633;DHT22;15046;50.930;13.334;2023-07-02T10:55:17;29.60;58.80
27633;DHT22;15046;50.930;13.334;2023-07-02T10:57:44;28.40;58.70
27633;DHT22;15046;50.930;13.334;2023-07-02T11:00:10;27.10;60.10
27633;DHT22;15046;50.930;13.334;2023-07-02T11:02:37;26.10;61.70
27633;DHT22;15046;50.930;13.334;2023-07-02T11:05:04;25.30;63.40
27633;DHT22;15046;50.930;13.334;2023-07-02T11:07:32;24.60;64.50
27633;DHT22;15046;50.930;13.334;2023-07-02T11:09:58;24.10;65.50
27633;DHT22;15046;50.930;13.334;2023-07-02T11:12:28;23.90;66.50
27633;DHT22;15046;50.930;13.334;2023-07-02T11:14:54;23.70;67.00
27633;DHT22;15046;50.930;13.334;2023-07-02T11:17:26;23.70;67.60
27633;DHT22;15046;50.930;13.334;2023-07-02T11:19:53;24.70;67.40
27633;DHT22;15046;50.930;13.334;2023-07-02T11:22:19;26.20;66.30
27633;DHT22;15046;50.930;13.334;2023-07-02T11:24:45;27.70;66.00
27633;DHT22;15046;50.930;13.334;2023-07-02T11:27:21;29.20;63.00
27633;DHT22;15046;50.930;13.334;2023-07-02T11:29:47;30.60;60.40
27633;DHT22;15046;50.930;13.334;2023-07-02T11:32:13;31.10;57.50
27633;DHT22;15046;50.930;13.334;2023-07-02T11:34:39;30.30;57.70
27633;DHT22;15046;50.930;13.334;2023-07-02T11:37:06;29.40;58.10
27633;DHT22;15046;50.930;13.334;2023-07-02T11:39:32;28.40;59.50
27633;DHT22;15046;50.930;13.334;2023-07-02T11:41:58;27.50;60.80
27633;DHT22;15046;50.930;13.334;2023-07-02T11:44:24;26.70;61.70
27633;DHT22;15046;50.930;13.334;2023-07-02T11:46:50;26.10;62.00
27633;DHT22;15046;50.930;13.334;2023-07-02T11:49:16;25.60;62.70
27633;DHT22;15046;50.930;13.334;2023-07-02T11:51:43;25.20;63.30
27633;DHT22;15046;50.930;13.334;2023-07-02T11:54:16;24.90;63.30
27633;DHT22;15046;50.930;13.334;2023-07-02T11:56:45;24.80;63.90
27633;DHT22;15046;50.930;13.334;2023-07-02T11:59:12;24.70;63.30
27633;DHT22;15046;50.930;13.334;2023-07-02T12:01:40;24.60;63.10
27633;DHT22;15046;50.930;13.334;2023-07-02T12:04:11;24.60;63.90
27633;DHT22;15046;50.930;13.334;2023-07-02T12:06:37;24.90;63.60
27633;DHT22;15046;50.930;13.334;2023-07-02T12:09:03;25.10;62.60
27633;DHT22;15046;50.930;13.334;2023-07-02T12:11:30;25.10;63.30
27633;DHT22;15046;50.930;13.334;2023-07-02T12:13:56;25.70;62.70
27633;DHT22;15046;50.930;13.334;2023-07-02T12:16:22;26.20;60.60
27633;DHT22;15046;50.930;13.334;2023-07-02T12:18:48;26.30;59.00
27633;DHT22;15046;50.930;13.334;2023-07-02T12:21:14;26.40;58.60
27633;DHT22;15046;50.930;13.334;2023-07-02T12:23:43;26.50;58.10
27633;DHT22;15046;50.930;13.334;2023-07-02T12:26:10;26.80;58.10
27633;DHT22;15046;50.930;13.334;2023-07-02T12:28:36;27.20;58.30
27633;DHT22;15046;50.930;13.334;2023-07-02T12:31:02;27.50;57.60
27633;DHT22;15046;50.930;13.334;2023-07-02T12:33:28;27.70;57.30
27633;DHT22;15046;50.930;13.334;2023-07-02T12:35:55;28.60;57.20
27633;DHT22;15046;50.930;13.334;2023-07-02T12:38:21;29.60;56.20
27633;DHT22;15046;50.930;13.334;2023-07-02T12:40:47;30.50;55.30
27633;DHT22;15046;50.930;13.334;2023-07-02T12:43:14;31.20;54.70
27633;DHT22;15046;50.930;13.334;2023-07-02T12:45:41;30.90;53.60
27633;DHT22;15046;50.930;13.334;2023-07-02T12:48:08;30.50;54.80
27633;DHT22;15046;50.930;13.334;2023-07-02T12:50:37;30.50;53.90
27633;DHT22;15046;50.930;13.334;2023-07-02T12:53:04;29.80;54.00
27633;DHT22;15046;50.930;13.334;2023-07-02T12:55:29;29.00;54.30
27633;DHT22;15046;50.930;13.334;2023-07-02T12:57:57;28.20;55.40
27633;DHT22;15046;50.930;13.334;2023-07-02T13:00:23;27.50;56.20
27633;DHT22;15046;50.930;13.334;2023-07-02T13:02:49;26.80;56.60
27633;DHT22;15046;50.930;13.334;2023-07-02T13:05:15;26.00;57.50
27633;DHT22;15046;50.930;13.334;2023-07-02T13:07:41;25.30;58.40
27633;DHT22;15046;50.930;13.334;2023-07-02T13:10:07;24.70;59.30
27633;DHT22;15046;50.930;13.334;2023-07-02T13:12:33;24.30;60.20
27633;DHT22;15046;50.930;13.334;2023-07-02T13:14:59;24.40;60.80
27633;DHT22;15046;50.930;13.334;2023-07-02T13:17:25;25.20;60.90
27633;DHT22;15046;50.930;13.334;2023-07-02T13:19:50;25.90;59.90
27633;DHT22;15046;50.930;13.334;2023-07-02T13:22:16;27.00;59.60
27633;DHT22;15046;50.930;13.334;2023-07-02T13:24:42;28.50;58.20
27633;DHT22;15046;50.930;13.334;2023-07-02T13:27:12;28.70;56.20
27633;DHT22;15046;50.930;13.334;2023-07-02T13:29:40;28.30;56.10
27633;DHT22;15046;50.930;13.334;2023-07-02T13:32:06;27.60;55.90
27633;DHT22;15046;50.930;13.334;2023-07-02T13:34:32;26.90;56.50
27633;DHT22;15046;50.930;13.334;2023-07-02T13:36:59;26.50;57.20
27633;DHT22;15046;50.930;13.334;2023-07-02T13:39:28;26.20;57.90
27633;DHT22;15046;50.930;13.334;2023-07-02T13:41:54;26.40;58.50
27633;DHT22;15046;50.930;13.334;2023-07-02T13:44:21;26.60;58.40
27633;DHT22;15046;50.930;13.334;2023-07-02T13:46:47;26.80;57.70
27633;DHT22;15046;50.930;13.334;2023-07-02T13:49:13;27.60;57.30
27633;DHT22;15046;50.930;13.334;2023-07-02T13:51:39;28.00;57.10
27633;DHT22;15046;50.930;13.334;2023-07-02T13:54:05;28.70;56.50
27633;DHT22;15046;50.930;13.334;2023-07-02T13:56:31;29.50;56.00
27633;DHT22;15046;50.930;13.334;2023-07-02T13:59:16;29.70;55.00
27633;DHT22;15046;50.930;13.334;2023-07-02T14:01:45;30.00;55.20
27633;DHT22;15046;50.930;13.334;2023-07-02T14:04:11;30.20;53.00
27633;DHT22;15046;50.930;13.334;2023-07-02T14:06:37;29.70;53.50
27633;DHT22;15046;50.930;13.334;2023-07-02T14:09:05;29.00;53.40
27633;DHT22;15046;50.930;13.334;2023-07-02T14:11:31;28.30;54.10
27633;DHT22;15046;50.930;13.334;2023-07-02T14:14:00;27.70;54.20
27633;DHT22;15046;50.930;13.334;2023-07-02T14:16:25;27.10;54.80
27633;DHT22;15046;50.930;13.334;2023-07-02T14:18:52;27.10;55.90
27633;DHT22;15046;50.930;13.334;2023-07-02T14:21:18;27.50;55.70
27633;DHT22;15046;50.930;13.334;2023-07-02T14:23:45;27.60;55.60
27633;DHT22;15046;50.930;13.334;2023-07-02T14:26:11;27.50;55.60
27633;DHT22;15046;50.930;13.334;2023-07-02T14:28:38;27.30;55.70
27633;DHT22;15046;50.930;13.334;2023-07-02T14:31:06;27.20;55.30
27633;DHT22;15046;50.930;13.334;2023-07-02T14:33:33;26.90;55.50
27633;DHT22;15046;50.930;13.334;2023-07-02T14:36:00;26.90;56.30
27633;DHT22;15046;50.930;13.334;2023-07-02T14:38:26;27.70;56.60
27633;DHT22;15046;50.930;13.334;2023-07-02T14:40:54;28.70;55.30
27633;DHT22;15046;50.930;13.334;2023-07-02T14:43:26;29.50;53.90
27633;DHT22;15046;50.930;13.334;2023-07-02T14:45:53;29.70;53.40
27633;DHT22;15046;50.930;13.334;2023-07-02T14:48:20;29.60;52.70
27633;DHT22;15046;50.930;13.334;2023-07-02T14:50:49;29.20;52.80
27633;DHT22;15046;50.930;13.334;2023-07-02T14:53:18;28.50;52.20
27633;DHT22;15046;50.930;13.334;2023-07-02T14:55:45;27.90;52.60
27633;DHT22;15046;50.930;13.334;2023-07-02T14:58:13;27.60;53.30
27633;DHT22;15046;50.930;13.334;2023-07-02T15:00:47;27.70;53.80
27633;DHT22;15046;50.930;13.334;2023-07-02T15:03:14;27.80;54.30
27633;DHT22;15046;50.930;13.334;2023-07-02T15:05:41;28.00;54.00
27633;DHT22;15046;50.930;13.334;2023-07-02T15:08:08;28.70;53.10
27633;DHT22;15046;50.930;13.334;2023-07-02T15:10:35;29.30;51.90
27633;DHT22;15046;50.930;13.334;2023-07-02T15:13:07;29.80;51.40
27633;DHT22;15046;50.930;13.334;2023-07-02T15:15:34;30.00;50.80
27633;DHT22;15046;50.930;13.334;2023-07-02T15:18:01;29.40;51.90